Time;durP1;ratioP1;P1;durP2;ratioP2;P2;SDS_P1;SDS_P2;PMS_P1;PMS_P2;Temp;Humidity;BMP_temperature;BMP_pressure;BME280_temperature;BME280_humidity;BME280_pressure;Samples;Min_cycle;Max_cycle;Signal;HPM_P1;HPM_P2
2023/07/13 00:02:56;;;;;;;0.80;0.38;;;;;;;21.86;100.00;101363.09;10443073;28;20474;-86
2023/07/13 00:07:58;;;;;;;0.70;0.38;;;;;;;22.00;100.00;101369.00;10438954;28;20063;-86
2023/07/13 00:13:00;;;;;;;1.58;0.85;;;;;;;22.17;100.00;101371.38;10438610;28;20507;-85
2023/07/13 00:18:02;;;;;;;0.00;0.00;;;;;;;22.62;100.00;101369.81;10439068;28;20458;-85
2023/07/13 00:23:04;;;;;;;0.17;0.17;;;;;;;22.38;100.00;101371.06;10443826;28;20509;-85
2023/07/13 00:28:06;;;;;;;0.10;0.10;;;;;;;22.01;100.00;101372.47;10438201;28;20037;-85
2023/07/13 00:33:08;;;;;;;0.30;0.30;;;;;;;22.06;100.00;101378.56;10438309;28;20144;-86
2023/07/13 00:38:19;;;;;;;0.10;0.10;;;;;;;22.21;100.00;101381.84;10438140;28;20454;-86
2023/07/13 00:43:26;;;;;;;0.10;0.10;;;;;;;21.71;100.00;101386.00;10421132;28;20049;-85
2023/07/13 00:48:36;;;;;;;0.25;0.03;;;;;;;21.80;100.00;101390.25;10437171;28;20053;-86
2023/07/13 00:53:38;;;;;;;0.00;0.00;;;;;;;21.79;100.00;101378.03;10468562;28;20487;-86
2023/07/13 00:58:41;;;;;;;0.00;0.00;;;;;;;22.15;100.00;101388.03;10424042;28;20041;-85
2023/07/13 01:03:43;;;;;;;0.00;0.00;;;;;;;22.07;100.00;101380.28;10456754;28;20061;-86
2023/07/13 01:08:45;;;;;;;0.10;0.03;;;;;;;22.65;100.00;101391.66;10437671;28;20041;-85
2023/07/13 01:13:48;;;;;;;0.40;0.22;;;;;;;22.88;100.00;101392.16;10453559;28;20049;-86
2023/07/13 01:18:50;;;;;;;0.13;0.13;;;;;;;22.80;100.00;101384.41;10437286;28;20044;-86
2023/07/13 01:23:52;;;;;;;0.22;0.08;;;;;;;22.74;100.00;101377.50;10453127;28;20128;-86
2023/07/13 01:28:56;;;;;;;0.00;0.00;;;;;;;23.21;100.00;101376.69;10420455;28;20041;-86
2023/07/13 01:33:58;;;;;;;1.58;0.47;;;;;;;21.73;100.00;101388.59;10469213;28;20051;-85
2023/07/13 01:39:00;;;;;;;0.00;0.00;;;;;;;21.66;100.00;101381.72;10452873;28;20039;-85
2023/07/13 01:44:02;;;;;;;0.20;0.15;;;;;;;21.65;100.00;101387.84;10462202;28;20045;-85
2023/07/13 01:49:05;;;;;;;0.80;0.15;;;;;;;21.56;100.00;101376.53;10436684;28;20033;-85
2023/07/13 01:54:07;;;;;;;0.00;0.00;;;;;;;21.11;100.00;101384.03;10440392;28;20092;-85
2023/07/13 01:59:09;;;;;;;0.08;0.08;;;;;;;21.39;100.00;101383.75;10453301;28;20049;-86
2023/07/13 02:04:11;;;;;;;0.20;0.20;;;;;;;21.33;100.00;101383.84;10444185;28;20048;-86
2023/07/13 02:09:13;;;;;;;3.50;0.20;;;;;;;21.00;100.00;101391.16;10469946;28;20537;-86
2023/07/13 02:14:15;;;;;;;0.08;0.03;;;;;;;20.79;100.00;101386.97;10477275;28;20107;-85
2023/07/13 02:19:17;;;;;;;0.03;0.03;;;;;;;21.36;100.00;101375.91;10460886;28;20055;-86
2023/07/13 02:24:20;;;;;;;1.08;0.85;;;;;;;21.18;100.00;101379.59;10460201;28;20053;-86
2023/07/13 02:29:22;;;;;;;0.40;0.15;;;;;;;21.05;100.00;101386.72;10434606;28;20054;-85
2023/07/13 02:34:27;;;;;;;0.25;0.10;;;;;;;20.85;100.00;101393.03;10454601;28;20048;-81
2023/07/13 02:39:32;;;;;;;0.03;0.03;;;;;;;21.01;100.00;101387.66;10442839;28;20045;-80
2023/07/13 02:44:34;;;;;;;0.00;0.00;;;;;;;21.21;100.00;101388.31;10442663;28;20068;-81
2023/07/13 02:49:36;;;;;;;0.60;0.17;;;;;;;20.99;100.00;101378.94;10442213;28;20483;-80
2023/07/13 02:54:39;;;;;;;0.30;0.10;;;;;;;21.19;100.00;101402.31;10474492;28;20136;-81
2023/07/13 02:59:41;;;;;;;0.20;0.20;;;;;;;21.13;100.00;101398.00;10459017;28;20470;-80
2023/07/13 03:04:43;;;;;;;0.03;0.03;;;;;;;21.08;100.00;101395.41;10442218;28;20045;-81
2023/07/13 03:09:45;;;;;;;0.10;0.10;;;;;;;21.09;100.00;101412.03;10452736;28;20094;-81
2023/07/13 03:14:47;;;;;;;0.47;0.43;;;;;;;20.80;100.00;101412.28;10451626;28;20036;-81
2023/07/13 03:19:51;;;;;;;0.00;0.00;;;;;;;20.55;100.00;101409.84;10429530;28;20057;-80
2023/07/13 03:24:55;;;;;;;0.25;0.10;;;;;;;20.81;100.00;101416.63;10441590;28;20053;-81
2023/07/13 03:29:56;;;;;;;0.38;0.10;;;;;;;20.80;100.00;101425.38;10457627;28;20072;-81
2023/07/13 03:34:58;;;;;;;0.25;0.20;;;;;;;20.69;100.00;101430.66;10426446;28;20132;-80
2023/07/13 03:40:00;;;;;;;0.00;0.00;;;;;;;20.68;100.00;101421.06;10441221;28;20139;-81
2023/07/13 03:45:05;;;;;;;0.40;0.25;;;;;;;20.64;100.00;101435.94;10472630;28;20071;-81
2023/07/13 03:50:08;;;;;;;0.47;0.28;;;;;;;20.68;100.00;101439.41;10442031;28;20095;-80
2023/07/13 03:55:10;;;;;;;0.00;0.00;;;;;;;20.36;100.00;101446.59;10454491;28;20072;-81
2023/07/13 04:00:13;;;;;;;0.40;0.10;;;;;;;20.28;100.00;101441.44;10471197;28;20045;-81
2023/07/13 04:05:18;;;;;;;1.55;0.13;;;;;;;20.60;100.00;101445.56;10463565;28;20069;-81
2023/07/13 04:10:20;;;;;;;0.20;0.08;;;;;;;20.73;100.00;101445.50;10423166;28;20053;-81
2023/07/13 04:15:22;;;;;;;1.15;0.47;;;;;;;20.59;100.00;101446.44;10439293;28;20053;-81
2023/07/13 04:20:25;;;;;;;1.15;0.20;;;;;;;20.23;100.00;101456.25;10473691;28;20541;-81
2023/07/13 04:25:27;;;;;;;4.03;0.68;;;;;;;20.37;100.00;101463.16;10439071;28;20041;-80
2023/07/13 04:30:29;;;;;;;0.47;0.35;;;;;;;20.65;100.00;101455.16;10439899;28;20041;-81
2023/07/13 04:35:31;;;;;;;0.25;0.20;;;;;;;20.90;100.00;101454.09;10438465;28;20132;-81
2023/07/13 04:40:33;;;;;;;0.13;0.10;;;;;;;21.09;100.00;101453.94;10472654;28;20048;-81
2023/07/13 04:45:35;;;;;;;0.30;0.22;;;;;;;21.05;100.00;101462.69;10438103;28;20091;-82
2023/07/13 04:50:37;;;;;;;1.55;0.10;;;;;;;21.20;100.00;101465.16;10421950;28;20144;-81
2023/07/13 04:55:40;;;;;;;0.05;0.05;;;;;;;21.33;100.00;101457.22;10438210;28;20041;-81
2023/07/13 05:00:43;;;;;;;0.08;0.05;;;;;;;20.95;100.00;101468.91;10471048;28;20048;-81
2023/07/13 05:05:59;;;;;;;0.82;0.32;;;;;;;21.15;100.00;101479.22;10445618;28;20543;-81
2023/07/13 05:11:01;;;;;;;1.15;0.47;;;;;;;21.13;100.00;101479.22;10421145;28;20080;-82
2023/07/13 05:16:08;;;;;;;0.13;0.10;;;;;;;21.39;100.00;101488.59;10453927;28;20045;-80
2023/07/13 05:21:11;;;;;;;0.25;0.25;;;;;;;21.97;100.00;101487.09;10436312;28;20069;-80
2023/07/13 05:26:14;;;;;;;0.35;0.22;;;;;;;21.87;100.00;101491.59;10436222;28;20095;-81
2023/07/13 05:31:15;;;;;;;0.00;0.00;;;;;;;22.02;100.00;101497.53;10457669;28;20056;-81
2023/07/13 05:36:17;;;;;;;1.35;0.60;;;;;;;22.23;100.00;101487.66;10452260;28;20043;-81
2023/07/13 05:41:19;;;;;;;0.00;0.00;;;;;;;22.55;100.00;101491.59;10454227;28;20064;-81
2023/07/13 05:46:21;;;;;;;0.47;0.47;;;;;;;22.23;100.00;101498.16;10430328;28;20037;-81
2023/07/13 05:51:23;;;;;;;1.20;1.05;;;;;;;22.69;100.00;101499.28;10454399;28;20040;-81
2023/07/13 05:56:26;;;;;;;0.28;0.28;;;;;;;22.64;100.00;101510.72;10435938;28;20099;-81
2023/07/13 06:01:30;;;;;;;0.88;0.30;;;;;;;23.28;100.00;101518.50;10436367;28;20041;-80
2023/07/13 06:06:33;;;;;;;0.20;0.20;;;;;;;22.52;100.00;101520.56;10435763;28;20044;-81
2023/07/13 06:11:35;;;;;;;1.45;1.10;;;;;;;23.03;100.00;101539.03;10468738;28;20072;-81
2023/07/13 06:16:36;;;;;;;0.30;0.30;;;;;;;23.22;100.00;101538.75;10452017;28;20083;-80
2023/07/13 06:21:38;;;;;;;1.88;0.90;;;;;;;23.54;100.00;101550.47;10452198;28;20045;-81
2023/07/13 06:26:40;;;;;;;0.30;0.30;;;;;;;23.65;100.00;101548.50;10451962;28;20037;-81
2023/07/13 06:31:42;;;;;;;0.50;0.40;;;;;;;23.54;100.00;101561.00;10435323;28;20052;-81
2023/07/13 06:36:44;;;;;;;0.77;0.70;;;;;;;23.72;100.00;101565.91;10451122;28;20128;-80
2023/07/13 06:41:46;;;;;;;0.30;0.30;;;;;;;24.07;100.00;101551.25;10475387;28;20071;-81
2023/07/13 06:46:48;;;;;;;0.60;0.43;;;;;;;23.89;100.00;101562.09;10449249;28;20443;-80
2023/07/13 06:51:50;;;;;;;0.68;0.38;;;;;;;24.35;100.00;101561.19;10441728;28;20040;-81
2023/07/13 06:56:52;;;;;;;0.65;0.32;;;;;;;24.35;100.00;101563.81;10467653;28;20478;-81
2023/07/13 07:01:53;;;;;;;2.22;0.85;;;;;;;24.38;100.00;101561.13;10433692;28;20155;-81
2023/07/13 07:06:55;;;;;;;0.77;0.50;;;;;;;24.82;100.00;101565.47;10441907;28;20128;-81
2023/07/13 07:12:00;;;;;;;0.63;0.63;;;;;;;24.38;100.00;101566.41;10441291;28;20377;-81
2023/07/13 07:17:05;;;;;;;0.95;0.70;;;;;;;24.78;100.00;101569.06;10441404;28;20464;-81
2023/07/13 07:22:07;;;;;;;1.90;0.55;;;;;;;24.15;100.00;101587.06;10457716;28;20037;-83
2023/07/13 07:27:09;;;;;;;0.50;0.38;;;;;;;24.02;100.00;101592.56;10458892;28;20051;-82
2023/07/13 07:32:13;;;;;;;0.77;0.50;;;;;;;25.07;100.00;101581.56;10459448;28;20120;-82
2023/07/13 07:37:35;;;;;;;0.45;0.45;;;;;;;25.22;100.00;101596.13;10452543;28;20435;-81
2023/07/13 07:42:40;;;;;;;1.55;0.38;;;;;;;24.53;100.00;101588.03;10464990;28;20077;-81
2023/07/13 07:47:42;;;;;;;0.10;0.10;;;;;;;24.90;100.00;101594.25;10439436;28;20496;-85
2023/07/13 07:52:44;;;;;;;0.63;0.52;;;;;;;25.05;100.00;101593.06;10457057;28;20538;-85
2023/07/13 07:57:46;;;;;;;0.73;0.50;;;;;;;24.34;100.00;101591.06;10423707;28;20491;-88
2023/07/13 08:02:51;;;;;;;0.98;0.75;;;;;;;24.26;100.00;101587.72;10448308;28;20111;-86
2023/07/13 08:07:55;;;;;;;1.48;0.85;;;;;;;24.06;100.00;101598.63;10424323;28;20487;-84
2023/07/13 08:12:57;;;;;;;1.45;0.93;;;;;;;24.61;100.00;101593.13;10460248;28;20051;-85
2023/07/13 08:18:02;;;;;;;1.00;0.55;;;;;;;23.81;100.00;101600.84;10463877;28;20049;-85
2023/07/13 08:23:05;;;;;;;0.70;0.52;;;;;;;23.80;100.00;101599.09;10439107;28;20044;-85
2023/07/13 08:28:07;;;;;;;2.28;0.35;;;;;;;23.53;100.00;101602.19;10446071;28;20563;-85
2023/07/13 08:33:09;;;;;;;0.50;0.50;;;;;;;24.08;100.00;101603.00;10418275;28;20072;-87
2023/07/13 08:38:11;;;;;;;1.38;1.05;;;;;;;24.69;100.00;101585.97;10451755;28;20067;-86
2023/07/13 08:43:20;;;;;;;1.23;0.73;;;;;;;23.60;100.00;101600.34;10435660;28;20091;-86
2023/07/13 08:48:34;;;;;;;1.83;0.98;;;;;;;24.87;100.00;101582.03;10428839;28;20136;-84
2023/07/13 08:53:43;;;;;;;0.63;0.40;;;;;;;24.87;100.00;101574.97;10446511;28;20044;-85
2023/07/13 08:58:49;;;;;;;1.13;0.75;;;;;;;25.48;100.00;101581.47;10428437;28;20045;-86
2023/07/13 09:04:10;;;;;;;0.85;0.60;;;;;;;24.70;100.00;101578.00;10409105;28;20053;-86
2023/07/13 09:09:50;;;;;;;1.27;0.68;;;;;;;24.64;100.00;101578.13;10434109;28;20041;-84
2023/07/13 09:14:56;;;;;;;0.47;0.47;;;;;;;24.91;100.00;101581.03;10441080;28;20049;-84
2023/07/13 09:20:10;;;;;;;1.75;1.13;;;;;;;25.10;100.00;101583.25;10442778;28;20048;-84
2023/07/13 09:25:33;;;;;;;1.65;1.55;;;;;;;26.41;100.00;101563.06;10451170;28;20041;-84
2023/07/13 09:31:02;;;;;;;0.70;0.52;;;;;;;25.60;100.00;101567.94;10447152;28;20458;-84
2023/07/13 09:36:23;;;;;;;0.47;0.32;;;;;;;25.31;100.00;101573.97;10437095;28;20053;-85
2023/07/13 09:41:39;;;;;;;1.02;0.50;;;;;;;26.35;100.00;101579.97;10428655;28;20041;-86
2023/07/13 09:46:51;;;;;;;2.85;0.90;;;;;;;25.17;100.00;101582.19;10435838;28;20029;-85
2023/07/13 09:52:05;;;;;;;1.17;0.73;;;;;;;25.09;100.00;101576.25;10439719;28;20496;-84
2023/07/13 09:57:17;;;;;;;0.25;0.25;;;;;;;24.74;100.00;101572.69;10446905;28;20036;-84
2023/07/13 10:02:34;;;;;;;0.38;0.15;;;;;;;26.55;100.00;101578.50;10418979;28;20053;-84
2023/07/13 10:07:46;;;;;;;0.60;0.47;;;;;;;26.40;100.00;101572.78;10447571;28;20044;-84
2023/07/13 10:12:50;;;;;;;0.30;0.22;;;;;;;26.47;100.00;101570.81;10453353;28;20111;-85
2023/07/13 10:17:54;;;;;;;1.08;0.82;;;;;;;27.20;100.00;101564.13;10460470;28;20060;-86
2023/07/13 10:23:00;;;;;;;0.22;0.15;;;;;;;27.27;100.00;101579.78;10457876;28;20103;-85
2023/07/13 10:28:17;;;;;;;0.28;0.28;;;;;;;26.42;100.00;101597.38;10438808;28;20064;-85
2023/07/13 10:33:20;;;;;;;0.85;0.20;;;;;;;24.38;100.00;101629.59;10472655;28;20068;-87
2023/07/13 10:38:24;;;;;;;0.57;0.40;;;;;;;24.73;100.00;101624.50;10471517;28;20041;-86
2023/07/13 10:43:31;;;;;;;0.50;0.50;;;;;;;25.23;100.00;101623.38;10440244;28;20121;-87
2023/07/13 10:48:36;;;;;;;0.60;0.50;;;;;;;26.00;100.00;101625.84;10426903;28;20091;-86
2023/07/13 10:53:42;;;;;;;0.65;0.43;;;;;;;27.87;100.00;101628.03;10453421;28;20037;-85
2023/07/13 10:58:44;;;;;;;0.13;0.10;;;;;;;27.12;100.00;101628.75;10452853;28;20041;-86
2023/07/13 11:03:58;;;;;;;0.47;0.30;;;;;;;28.44;100.00;101628.63;10456132;28;20139;-86
2023/07/13 11:09:21;;;;;;;1.95;0.55;;;;;;;28.43;100.00;101628.69;10456503;28;20041;-87
2023/07/13 11:14:43;;;;;;;0.43;0.43;;;;;;;29.11;100.00;101608.34;10454792;28;20065;-85
2023/07/13 11:19:52;;;;;;;0.52;0.30;;;;;;;28.51;100.00;101616.00;10472740;28;20117;-85
2023/07/13 11:24:58;;;;;;;0.85;0.47;;;;;;;28.49;100.00;101624.00;10435123;28;20048;-84
2023/07/13 11:30:24;;;;;;;0.10;0.10;;;;;;;27.58;100.00;101626.41;10464027;28;20509;-86
2023/07/13 11:35:27;;;;;;;0.45;0.30;;;;;;;26.72;100.00;101636.13;10462004;28;20044;-85
2023/07/13 11:40:30;;;;;;;0.30;0.30;;;;;;;27.71;100.00;101655.03;10456158;28;20037;-86
2023/07/13 11:45:32;;;;;;;0.50;0.50;;;;;;;28.20;100.00;101650.72;10459203;28;20041;-85
2023/07/13 11:50:55;;;;;;;0.10;0.10;;;;;;;28.96;100.00;101640.81;10455706;28;20043;-84
2023/07/13 11:55:58;;;;;;;;;;;;;;;29.32;100.00;101636.75;10436507;28;20053;-85
2023/07/13 12:01:04;;;;;;;2.63;0.75;;;;;;;28.15;100.00;101641.19;10451603;28;19927;-84
2023/07/13 12:06:25;;;;;;;1.45;0.85;;;;;;;27.48;100.00;101642.59;10444924;28;20072;-85
2023/07/13 12:11:27;;;;;;;2.20;0.40;;;;;;;27.59;100.00;101662.53;10449485;28;20049;-82
2023/07/13 12:16:32;;;;;;;0.47;0.47;;;;;;;26.42;100.00;101675.75;10451874;28;20095;-82
2023/07/13 12:21:38;;;;;;;0.52;0.30;;;;;;;26.04;100.00;101669.72;10450053;28;20128;-82
2023/07/13 12:26:41;;;;;;;2.08;0.57;;;;;;;26.36;100.00;101671.50;10439063;28;20051;-84
2023/07/13 12:31:48;;;;;;;0.00;0.00;;;;;;;27.50;100.00;101666.34;10465128;28;20045;-82
2023/07/13 12:36:56;;;;;;;0.13;0.13;;;;;;;28.21;100.00;101663.06;10451595;28;20064;-86
2023/07/13 12:42:26;;;;;;;0.63;0.30;;;;;;;28.15;100.00;101654.41;10426902;28;20041;-86
2023/07/13 12:47:28;;;;;;;0.38;0.20;;;;;;;28.75;100.00;101643.38;10421243;28;20075;-86
2023/07/13 12:52:34;;;;;;;0.50;0.40;;;;;;;27.83;100.00;101632.56;10437202;28;20048;-86
2023/07/13 12:58:04;;;;;;;0.20;0.10;;;;;;;27.75;100.00;101645.19;10468056;28;20071;-87
2023/07/13 13:03:22;;;;;;;0.75;0.40;;;;;;;28.65;100.00;101647.28;10432595;28;20107;-86
2023/07/13 13:08:28;;;;;;;3.17;1.25;;;;;;;28.77;100.00;101652.16;10427828;28;20045;-85
2023/07/13 13:13:30;;;;;;;0.50;0.40;;;;;;;28.65;100.00;101657.88;10466488;28;20045;-85
2023/07/13 13:18:32;;;;;;;0.38;0.30;;;;;;;28.38;100.00;101655.34;10467347;28;20123;-85
2023/07/13 13:23:34;;;;;;;0.32;0.20;;;;;;;27.06;100.00;101688.88;10458674;28;20128;-86
2023/07/13 13:28:36;;;;;;;1.08;0.98;;;;;;;25.96;100.00;101689.28;10435674;28;20132;-86
2023/07/13 13:33:43;;;;;;;0.20;0.20;;;;;;;25.15;100.00;101710.56;10455611;28;20121;-85
2023/07/13 13:38:45;;;;;;;0.00;0.00;;;;;;;24.28;100.00;101722.84;10443036;28;20041;-88
2023/07/13 13:43:47;;;;;;;0.30;0.20;;;;;;;23.68;100.00;101722.06;10445643;28;20103;-92
2023/07/13 13:48:49;;;;;;;0.10;0.05;;;;;;;24.44;100.00;101702.34;10427675;28;20053;-87
2023/07/13 13:53:51;;;;;;;0.17;0.10;;;;;;;23.68;100.00;101706.28;10480068;28;20084;-87
2023/07/13 13:58:53;;;;;;;0.00;0.00;;;;;;;25.17;100.00;101692.94;10462413;28;20047;-89
2023/07/13 14:03:54;;;;;;;0.25;0.20;;;;;;;25.43;100.00;101691.50;10430250;28;20044;-91
2023/07/13 14:08:56;;;;;;;0.03;0.03;;;;;;;26.21;100.00;101693.94;10447602;28;20041;-90
2023/07/13 14:14:03;;;;;;;0.10;0.10;;;;;;;27.01;100.00;101680.22;10456203;28;20052;-89
2023/07/13 14:19:05;;;;;;;0.00;0.00;;;;;;;26.94;100.00;101672.50;10456250;28;20033;-89
2023/07/13 14:24:07;;;;;;;0.40;0.32;;;;;;;27.24;100.00;101670.69;10426737;28;20049;-88
2023/07/13 14:29:16;;;;;;;0.70;0.20;;;;;;;27.55;100.00;101670.56;10461717;28;20040;-88
2023/07/13 14:34:20;;;;;;;0.08;0.08;;;;;;;27.38;100.00;101663.16;10458878;28;20075;-87
2023/07/13 14:39:24;;;;;;;0.63;0.20;;;;;;;27.71;100.00;101664.78;10442130;28;20084;-88
2023/07/13 14:44:29;;;;;;;0.20;0.05;;;;;;;27.45;100.00;101647.13;10475517;28;20053;-88
2023/07/13 14:49:35;;;;;;;0.10;0.10;;;;;;;27.21;100.00;101649.63;10475659;28;20044;-89
2023/07/13 14:54:40;;;;;;;0.08;0.08;;;;;;;27.33;100.00;101648.34;10441110;28;20049;-89
2023/07/13 14:59:45;;;;;;;0.00;0.00;;;;;;;28.47;100.00;101644.41;10441052;28;20076;-90
2023/07/13 15:04:47;;;;;;;0.10;0.10;;;;;;;28.30;100.00;101652.13;10440258;28;20499;-91
2023/07/13 15:09:50;;;;;;;0.00;0.00;;;;;;;29.06;100.00;101636.88;10441266;28;20053;-89
2023/07/13 15:14:52;;;;;;;0.00;0.00;;;;;;;28.30;100.00;101652.97;10439845;28;20069;-89
2023/07/13 15:19:57;;;;;;;0.10;0.10;;;;;;;28.12;100.00;101651.88;10435274;28;20083;-89
2023/07/13 15:25:00;;;;;;;0.13;0.13;;;;;;;28.55;100.00;101646.75;10434839;28;20821;-87
2023/07/13 15:30:06;;;;;;;0.45;0.20;;;;;;;28.50;100.00;101649.59;10440415;28;20041;-90
2023/07/13 15:35:20;;;;;;;0.00;0.00;;;;;;;28.39;100.00;101657.09;10440268;28;20451;-89
2023/07/13 15:40:24;;;;;;;0.10;0.10;;;;;;;28.49;100.00;101660.25;10453190;28;20037;-89
2023/07/13 15:45:26;;;;;;;0.13;0.10;;;;;;;28.94;100.00;101648.81;10470815;28;20542;-88
2023/07/13 15:50:43;;;;;;;1.10;0.80;;;;;;;28.52;100.00;101661.91;10436631;28;20053;-89
2023/07/13 15:55:45;;;;;;;0.10;0.10;;;;;;;28.20;100.00;101666.63;10463957;28;20049;-88
2023/07/13 16:00:50;;;;;;;0.00;0.00;;;;;;;28.41;100.00;101660.53;10455496;28;20518;-88
2023/07/13 16:06:22;;;;;;;0.85;0.38;;;;;;;29.20;100.00;101661.97;10466864;28;20033;-88
2023/07/13 16:11:26;;;;;;;0.00;0.00;;;;;;;28.58;100.00;101670.53;10446685;28;20419;-83
2023/07/13 16:16:34;;;;;;;0.10;0.10;;;;;;;28.26;100.00;101674.38;10441472;28;20578;-83
2023/07/13 16:21:45;;;;;;;0.10;0.10;;;;;;;28.58;100.00;101677.59;10467411;28;20044;-83
2023/07/13 16:26:48;;;;;;;0.00;0.00;;;;;;;27.97;100.00;101670.91;10448484;28;20040;-83
2023/07/13 16:32:04;;;;;;;0.17;0.17;;;;;;;27.90;100.00;101669.41;10434234;28;20051;-83
2023/07/13 16:37:19;;;;;;;0.13;0.10;;;;;;;27.54;100.00;101673.28;10452298;28;20041;-83
2023/07/13 16:42:47;;;;;;;0.05;0.05;;;;;;;28.31;100.00;101681.22;10428893;28;20049;-86
2023/07/13 16:47:51;;;;;;;0.13;0.10;;;;;;;28.94;100.00;101674.47;10463974;28;20037;-86
2023/07/13 16:52:57;;;;;;;0.38;0.17;;;;;;;28.34;100.00;101680.22;10435197;28;20144;-86
2023/07/13 16:58:02;;;;;;;0.10;0.10;;;;;;;28.20;100.00;101687.81;10463620;28;20565;-86
2023/07/13 17:03:05;;;;;;;0.30;0.30;;;;;;;27.27;100.00;101681.16;10433925;28;20041;-86
2023/07/13 17:14:18;;;;;;;0.20;0.10;;;;;;;28.17;100.00;101686.16;10439501;28;20052;-86
2023/07/13 17:19:28;;;;;;;0.25;0.20;;;;;;;28.61;100.00;101688.09;10440975;28;20065;-87
2023/07/13 17:24:33;;;;;;;0.22;0.22;;;;;;;28.39;100.00;101693.31;10462879;28;20053;-86
2023/07/13 17:29:36;;;;;;;0.10;0.10;;;;;;;28.07;100.00;101688.25;10433398;28;20039;-87
2023/07/13 17:34:45;;;;;;;0.10;0.10;;;;;;;28.17;100.00;101694.09;10454971;28;20503;-86
2023/07/13 17:39:47;;;;;;;0.10;0.10;;;;;;;29.06;100.00;101684.63;10433408;28;20052;-85
2023/07/13 17:44:49;;;;;;;0.17;0.10;;;;;;;27.65;100.00;101687.00;10431625;28;20041;-86
2023/07/13 17:49:53;;;;;;;0.30;0.25;;;;;;;27.84;100.00;101692.53;10437485;28;20053;-85
2023/07/13 17:54:55;;;;;;;0.10;0.10;;;;;;;27.65;100.00;101691.44;10433671;28;20048;-85
2023/07/13 17:59:57;;;;;;;0.30;0.30;;;;;;;28.55;100.00;101690.97;10448204;28;20036;-85
2023/07/13 18:05:01;;;;;;;0.28;0.00;;;;;;;28.35;100.00;101684.59;10440145;28;20550;-84
2023/07/13 18:10:54;;;;;;;0.30;0.10;;;;;;;28.05;100.00;101683.91;10444156;28;20033;-86
2023/07/13 18:15:59;;;;;;;0.13;0.08;;;;;;;27.85;100.00;101688.97;10460151;28;20094;-85
2023/07/13 18:21:01;;;;;;;0.00;0.00;;;;;;;27.73;100.00;101699.13;10431607;28;20037;-85
2023/07/13 18:26:09;;;;;;;0.38;0.20;;;;;;;28.09;100.00;101702.31;10432632;28;20037;-85
2023/07/13 18:31:18;;;;;;;0.00;0.00;;;;;;;27.49;100.00;101713.13;10441966;28;20119;-85
2023/07/13 18:36:22;;;;;;;0.00;0.00;;;;;;;27.26;100.00;101705.03;10437016;28;20049;-86
2023/07/13 18:41:24;;;;;;;0.10;0.10;;;;;;;26.86;100.00;101713.25;10465399;28;20121;-84
2023/07/13 18:46:31;;;;;;;1.50;0.52;;;;;;;26.48;100.00;101728.41;10460386;28;20140;-86
2023/07/13 18:51:34;;;;;;;0.00;0.00;;;;;;;26.54;100.00;101722.97;10445300;28;20044;-85
2023/07/13 18:56:36;;;;;;;0.00;0.00;;;;;;;26.85;100.00;101724.75;10464674;28;20139;-85
2023/07/13 19:01:38;;;;;;;0.03;0.03;;;;;;;27.14;100.00;101725.66;10437850;28;20041;-85
2023/07/13 19:06:40;;;;;;;0.08;0.00;;;;;;;26.13;100.00;101732.88;10443868;28;20080;-84
2023/07/13 19:11:42;;;;;;;0.00;0.00;;;;;;;26.35;100.00;101724.38;10469252;28;20475;-85
2023/07/13 19:16:44;;;;;;;0.05;0.05;;;;;;;25.89;100.00;101724.66;10460409;28;20053;-85
2023/07/13 19:21:50;;;;;;;0.00;0.00;;;;;;;25.66;100.00;101734.00;10452006;28;20503;-86
2023/07/13 19:26:53;;;;;;;0.30;0.15;;;;;;;25.57;100.00;101739.53;10470502;28;20044;-86
2023/07/13 19:31:56;;;;;;;0.82;0.20;;;;;;;25.56;100.00;101743.06;10434754;28;20037;-85
2023/07/13 19:37:24;;;;;;;0.20;0.20;;;;;;;25.60;100.00;101743.88;10450763;28;20403;-85
2023/07/13 19:42:27;;;;;;;0.20;0.05;;;;;;;25.95;100.00;101750.91;10413313;28;20041;-86
2023/07/13 19:47:30;;;;;;;0.00;0.00;;;;;;;25.66;100.00;101747.22;10436423;28;20052;-85
2023/07/13 19:52:33;;;;;;;0.55;0.28;;;;;;;25.59;100.00;101758.81;10453529;28;20053;-86
2023/07/13 19:57:35;;;;;;;0.00;0.00;;;;;;;26.09;100.00;101760.28;10439050;28;20041;-86
2023/07/13 20:02:37;;;;;;;0.35;0.35;;;;;;;25.38;100.00;101777.75;10437275;28;20045;-86
2023/07/13 20:07:39;;;;;;;0.10;0.10;;;;;;;25.19;100.00;101780.81;10432046;28;20597;-85
2023/07/13 20:12:41;;;;;;;0.00;0.00;;;;;;;24.68;100.00;101782.72;10452051;28;20045;-85
2023/07/13 20:17:47;;;;;;;0.00;0.00;;;;;;;24.27;100.00;101779.03;10434927;28;20037;-85
2023/07/13 20:22:50;;;;;;;1.02;0.55;;;;;;;23.83;100.00;101780.59;10434509;28;20486;-85
2023/07/13 20:27:54;;;;;;;0.15;0.15;;;;;;;24.33;100.00;101772.78;10467809;28;20484;-86
2023/07/13 20:32:56;;;;;;;0.00;0.00;;;;;;;24.35;100.00;101777.13;10468214;28;20044;-85
2023/07/13 20:37:59;;;;;;;0.00;0.00;;;;;;;25.45;100.00;101771.47;10420460;28;20033;-86
2023/07/13 20:43:02;;;;;;;0.00;0.00;;;;;;;24.21;100.00;101773.88;10428765;28;20049;-86
2023/07/13 20:48:23;;;;;;;0.05;0.05;;;;;;;24.12;100.00;101779.28;10450512;28;20095;-86
2023/07/13 20:53:26;;;;;;;0.20;0.20;;;;;;;24.80;100.00;101778.94;10437670;28;20059;-86
2023/07/13 20:58:28;;;;;;;0.00;0.00;;;;;;;24.84;100.00;101782.38;10432609;28;20036;-86
2023/07/13 21:03:30;;;;;;;0.00;0.00;;;;;;;25.08;100.00;101782.78;10434057;28;20056;-86
2023/07/13 21:08:32;;;;;;;0.22;0.22;;;;;;;24.55;100.00;101789.06;10453812;28;20399;-86
2023/07/13 21:13:34;;;;;;;0.00;0.00;;;;;;;24.37;100.00;101785.88;10451194;28;20044;-86
2023/07/13 21:18:38;;;;;;;0.80;0.17;;;;;;;24.57;100.00;101783.78;10419339;28;20044;-85
2023/07/13 21:23:39;;;;;;;0.00;0.00;;;;;;;24.86;100.00;101788.50;10457479;28;20041;-84
2023/07/13 21:28:43;;;;;;;0.43;0.10;;;;;;;24.56;100.00;101790.78;10450637;28;20056;-85
2023/07/13 21:33:46;;;;;;;0.00;0.00;;;;;;;24.08;100.00;101795.16;10454195;28;20049;-84
2023/07/13 21:39:00;;;;;;;0.00;0.00;;;;;;;23.48;100.00;101803.03;10440139;28;20132;-84
2023/07/13 21:44:16;;;;;;;0.00;0.00;;;;;;;23.64;100.00;101804.56;10435028;28;20060;-85
2023/07/13 21:49:19;;;;;;;0.10;0.10;;;;;;;24.21;100.00;101802.81;10453684;28;20064;-85
2023/07/13 21:54:22;;;;;;;0.00;0.00;;;;;;;23.54;100.00;101805.59;10433066;28;20865;-85
2023/07/13 21:59:27;;;;;;;0.20;0.10;;;;;;;23.79;100.00;101802.59;10448676;28;20111;-85
2023/07/13 22:04:29;;;;;;;0.00;0.00;;;;;;;22.82;100.00;101803.78;10432908;28;20049;-85
2023/07/13 22:09:31;;;;;;;0.25;0.25;;;;;;;23.21;100.00;101794.63;10437536;28;20049;-85
2023/07/13 22:14:33;;;;;;;0.55;0.20;;;;;;;23.13;100.00;101795.53;10473703;28;20122;-85
2023/07/13 22:19:35;;;;;;;0.08;0.05;;;;;;;23.55;100.00;101799.44;10440986;28;20048;-85
2023/07/13 22:24:37;;;;;;;0.10;0.10;;;;;;;23.43;100.00;101803.09;10421442;28;20136;-85
2023/07/13 22:29:39;;;;;;;0.00;0.00;;;;;;;23.71;100.00;101800.97;10457380;28;20095;-85
2023/07/13 22:34:41;;;;;;;0.10;0.10;;;;;;;23.77;100.00;101803.50;10473609;28;20434;-85
2023/07/13 22:39:44;;;;;;;0.00;0.00;;;;;;;23.23;100.00;101803.34;10470705;28;20041;-85
2023/07/13 22:44:47;;;;;;;0.00;0.00;;;;;;;23.47;100.00;101801.31;10441673;28;20095;-85
2023/07/13 22:49:49;;;;;;;0.22;0.00;;;;;;;23.30;100.00;101810.28;10459013;28;20080;-85
2023/07/13 22:54:51;;;;;;;0.15;0.15;;;;;;;22.80;100.00;101804.69;10443571;28;20045;-85
2023/07/13 22:59:53;;;;;;;0.17;0.13;;;;;;;22.38;100.00;101794.56;10437686;28;20072;-85
2023/07/13 23:04:55;;;;;;;0.15;0.10;;;;;;;23.02;100.00;101789.56;10443282;28;20103;-85
2023/07/13 23:09:57;;;;;;;0.20;0.20;;;;;;;23.37;100.00;101784.78;10436372;28;20141;-85
2023/07/13 23:15:18;;;;;;;0.20;0.20;;;;;;;22.96;100.00;101784.38;10436753;28;20076;-85